CheckWX is a tool to help pilots better visualize weather data.  It is not intended as a substitute for an official pre-flight weather briefing.

05:24:29 UTC

D55 METAR
Robertson Field Airport
Langdon, North Dakota, USA
Current

9 mins ago

KD55 280515Z AUTO 17007KT 10SM OVC018 M09/M10 A3004 RMK AO2
Observed
Feb-28 @ 05:15 UTC
Wind
  • 170° at 7 KTS
Visibility
10 SM
Flight Rules
MVFR
Cloud Levels
  • Overcast at 1,800' AGL
Temperature
-9°C / 16°F
Dewpoint
-10°C / 14°F
Humidity
93%
Altimeter
30.04" Hg
Pressure
1017.32 hPa
Previous

29 mins ago

KD55 280455Z AUTO 18008KT 10SM SCT007 OVC019 M09/M10 A3003 RMK AO2
Observed
Feb-28 @ 04:55 UTC
Wind
  • 180° at 8 KTS
Visibility
10 SM
Flight Rules
MVFR
Cloud Levels
  • Scattered at 700' AGL
  • Overcast at 1,900' AGL
Temperature
-9°C / 16°F
Dewpoint
-10°C / 14°F
Humidity
93%
Altimeter
30.03" Hg
Pressure
1016.92 hPa
Previous

49 mins ago

KD55 280435Z AUTO 18008KT 10SM OVC007 M09/M10 A3004 RMK AO2
Observed
Feb-28 @ 04:35 UTC
Wind
  • 180° at 8 KTS
Visibility
10 SM
Flight Rules
IFR
Cloud Levels
  • Overcast at 700' AGL
Temperature
-9°C / 16°F
Dewpoint
-10°C / 14°F
Humidity
93%
Altimeter
30.04" Hg
Pressure
1017.32 hPa